createdAt,value
2022-09-09T00:01:02.784Z,2.7
2022-09-09T00:02:11.199Z,2.7
2022-09-09T00:03:19.608Z,2.7
2022-09-09T00:04:28.027Z,3.4
2022-09-09T00:05:36.388Z,3.4
2022-09-09T00:06:44.742Z,3.4
2022-09-09T00:07:53.280Z,3.6
2022-09-09T00:09:01.624Z,3.6
2022-09-09T00:10:09.971Z,3.6
2022-09-09T00:11:18.514Z,2.3
2022-09-09T00:12:26.855Z,2.3
2022-09-09T00:13:35.205Z,2.3
2022-09-09T00:14:43.759Z,4
2022-09-09T00:15:52.158Z,4
2022-09-09T00:17:00.443Z,4
2022-09-09T00:18:09.014Z,5.6
2022-09-09T00:19:17.373Z,5.6
2022-09-09T00:20:25.718Z,5.6
2022-09-09T00:21:34.271Z,1.6
2022-09-09T00:22:42.642Z,1.6
2022-09-09T00:23:50.976Z,1.6
2022-09-09T00:24:59.542Z,2.8
2022-09-09T00:26:07.874Z,2.8
2022-09-09T00:27:16.208Z,2.8
2022-09-09T00:28:24.761Z,3
2022-09-09T00:29:33.098Z,3
2022-09-09T00:30:41.510Z,3
2022-09-09T00:31:50.002Z,3.1
2022-09-09T00:32:58.353Z,3.1
2022-09-09T00:34:06.695Z,3.1
2022-09-09T00:35:15.247Z,2.8
2022-09-09T00:36:23.591Z,2.8
2022-09-09T00:37:31.936Z,2.8
2022-09-09T00:38:40.523Z,3.2
2022-09-09T00:39:48.926Z,3.2
2022-09-09T00:40:57.193Z,3.2
2022-09-09T00:42:05.744Z,3.5
2022-09-09T00:43:14.104Z,3.5
2022-09-09T00:44:22.447Z,3.5
2022-09-09T00:45:31.000Z,3
2022-09-09T00:46:39.390Z,3
2022-09-09T00:47:47.673Z,3
2022-09-09T00:48:56.220Z,1.9
2022-09-09T00:50:04.561Z,1.9
2022-09-09T00:51:12.915Z,1.9
2022-09-09T00:52:21.473Z,3.1
2022-09-09T00:53:29.814Z,3.1
2022-09-09T00:54:38.193Z,3.1
2022-09-09T00:55:46.741Z,3.4
2022-09-09T00:56:55.091Z,3.4
2022-09-09T00:58:03.444Z,3.4
2022-09-09T00:59:11.990Z,2.9
2022-09-09T01:00:20.332Z,2.9
2022-09-09T01:01:28.715Z,2.9
2022-09-09T01:02:37.270Z,3.2
2022-09-09T01:03:45.558Z,3.2
2022-09-09T01:04:53.894Z,3.2
2022-09-09T01:06:02.433Z,2.6
2022-09-09T01:07:10.773Z,2.6
2022-09-09T01:08:19.128Z,2.6
2022-09-09T01:09:27.681Z,3
2022-09-09T01:10:36.044Z,3
2022-09-09T01:11:44.358Z,3
2022-09-09T01:12:52.927Z,3.6
2022-09-09T01:14:01.262Z,3.6
2022-09-09T01:15:09.606Z,3.6
2022-09-09T01:16:18.244Z,3.6
2022-09-09T01:17:26.506Z,3.6
2022-09-09T01:18:35.083Z,3.6
2022-09-09T01:19:43.411Z,3
2022-09-09T01:20:51.748Z,3
2022-09-09T01:22:00.084Z,3
2022-09-09T01:23:08.639Z,3.6
2022-09-09T01:24:16.984Z,3.6
2022-09-09T01:25:25.336Z,3.6
2022-09-09T01:26:33.901Z,3.3
2022-09-09T01:27:42.230Z,3.3
2022-09-09T01:28:50.597Z,3.3
2022-09-09T01:29:59.147Z,3.2
2022-09-09T01:31:07.537Z,3.2
2022-09-09T01:32:15.822Z,3.2
2022-09-09T01:33:24.366Z,2.5
2022-09-09T01:34:32.723Z,2.5
2022-09-09T01:35:41.060Z,2.5
2022-09-09T01:36:49.612Z,3.2
2022-09-09T01:37:57.970Z,3.2
2022-09-09T01:39:06.311Z,3.2
2022-09-09T01:40:14.909Z,2.3
2022-09-09T01:41:23.210Z,2.3
2022-09-09T01:42:31.596Z,2.3
2022-09-09T01:43:40.114Z,4.1
2022-09-09T01:44:48.458Z,4.1
2022-09-09T01:45:56.906Z,4.1
2022-09-09T01:47:05.415Z,3.8
2022-09-09T01:48:13.759Z,3.8
2022-09-09T01:49:22.092Z,3.8
2022-09-09T01:50:30.649Z,3.4
2022-09-09T01:51:38.984Z,3.4
2022-09-09T01:52:47.347Z,3.4
2022-09-09T01:53:55.903Z,3.3
2022-09-09T01:55:04.240Z,3.3
2022-09-09T01:56:12.589Z,3.3
2022-09-09T01:57:21.155Z,3.8
2022-09-09T01:58:29.564Z,3.8
2022-09-09T01:59:37.845Z,3.8
2022-09-09T02:00:46.398Z,7
2022-09-09T02:01:54.878Z,7
2022-09-09T02:03:03.095Z,7
2022-09-09T02:04:11.630Z,4.1
2022-09-09T02:05:19.967Z,4.1
2022-09-09T02:06:28.313Z,4.1
2022-09-09T02:07:36.885Z,3.2
2022-09-09T02:08:45.216Z,3.2
2022-09-09T02:09:53.563Z,3.2
2022-09-09T02:11:02.107Z,4
2022-09-09T02:12:10.449Z,4
2022-09-09T02:13:18.792Z,4
2022-09-09T02:14:27.366Z,3.1
2022-09-09T02:15:35.700Z,3.1
2022-09-09T02:16:44.080Z,3.1
2022-09-09T02:17:52.602Z,2.4
2022-09-09T02:19:00.918Z,2.4
2022-09-09T02:20:09.258Z,2.4
2022-09-09T02:21:17.803Z,4.1
2022-09-09T02:22:26.155Z,4.1
2022-09-09T02:23:34.499Z,4.1
2022-09-09T02:24:43.047Z,2.7
2022-09-09T02:25:51.392Z,2.7
2022-09-09T02:26:59.760Z,2.7
2022-09-09T02:28:08.301Z,1.7
2022-09-09T02:29:16.639Z,1.7
2022-09-09T02:30:25.027Z,1.7
2022-09-09T02:31:33.542Z,3.2
2022-09-09T02:32:41.883Z,3.2
2022-09-09T02:33:50.767Z,3.2
2022-09-09T02:34:59.312Z,4.1
2022-09-09T02:36:07.667Z,4.1
2022-09-09T02:37:16.014Z,4.1
2022-09-09T02:38:24.560Z,2.7
2022-09-09T02:39:32.919Z,2.7
2022-09-09T02:40:41.233Z,2.7
2022-09-09T02:41:49.795Z,3
2022-09-09T02:42:58.128Z,3
2022-09-09T02:44:06.483Z,3
2022-09-09T02:45:15.023Z,3.5
2022-09-09T02:46:23.445Z,3.5
2022-09-09T02:47:31.712Z,3.5
2022-09-09T02:48:40.265Z,3.3
2022-09-09T02:49:48.610Z,3.3
2022-09-09T02:50:56.947Z,3.3
2022-09-09T02:52:05.509Z,2.4
2022-09-09T02:53:13.858Z,2.4
2022-09-09T02:54:22.198Z,2.4
2022-09-09T02:55:30.749Z,2.9
2022-09-09T02:56:39.103Z,2.9
2022-09-09T02:57:47.430Z,2.9
2022-09-09T02:58:55.982Z,3.3
2022-09-09T03:00:04.331Z,3.3
2022-09-09T03:01:12.739Z,3.3
2022-09-09T03:02:21.290Z,1.5
2022-09-09T03:03:29.559Z,1.5
2022-09-09T03:04:37.894Z,1.5
2022-09-09T03:05:46.450Z,3.5
2022-09-09T03:06:54.801Z,3.5
2022-09-09T03:08:03.148Z,3.5
2022-09-09T03:09:11.691Z,3.4
2022-09-09T03:10:20.037Z,3.4
2022-09-09T03:11:28.394Z,3.4
2022-09-09T03:12:36.936Z,5.1
2022-09-09T03:13:45.284Z,5.1
2022-09-09T03:14:53.627Z,5.1
2022-09-09T03:16:02.167Z,3.8
2022-09-09T03:17:10.518Z,3.8
2022-09-09T03:18:18.886Z,3.8
2022-09-09T03:19:27.399Z,4.9
2022-09-09T03:20:35.725Z,4.9
2022-09-09T03:21:44.071Z,4.9
2022-09-09T03:22:52.621Z,3.3
2022-09-09T03:24:00.955Z,3.3
2022-09-09T03:25:09.295Z,3.3
2022-09-09T03:26:17.861Z,3.6
2022-09-09T03:27:26.191Z,3.6
2022-09-09T03:28:34.603Z,3.6
2022-09-09T03:29:43.089Z,3.2
2022-09-09T03:30:51.426Z,3.2
2022-09-09T03:31:59.833Z,3.2
2022-09-09T03:33:08.360Z,6.3
2022-09-09T03:34:16.732Z,6.3
2022-09-09T03:35:25.055Z,6.3
2022-09-09T03:36:33.610Z,2.1
2022-09-09T03:37:41.952Z,2.1
2022-09-09T03:38:50.284Z,2.1
2022-09-09T03:39:58.901Z,2.1
2022-09-09T03:41:07.171Z,2.1
2022-09-09T03:42:15.510Z,2.1
2022-09-09T03:43:24.062Z,2.8
2022-09-09T03:44:32.404Z,2.8
2022-09-09T03:45:40.777Z,2.8
2022-09-09T03:46:49.287Z,3.6
2022-09-09T03:47:57.626Z,3.6
2022-09-09T03:49:05.979Z,3.6
2022-09-09T03:50:14.548Z,3.6
2022-09-09T03:51:22.878Z,3.6
2022-09-09T03:52:31.223Z,3.6
2022-09-09T03:53:39.771Z,2.7
2022-09-09T03:54:48.109Z,2.7
2022-09-09T03:55:56.466Z,2.7
2022-09-09T03:57:05.018Z,2.9
2022-09-09T03:58:13.369Z,2.9
2022-09-09T03:59:21.715Z,2.9
2022-09-09T04:00:30.273Z,2.2
2022-09-09T04:01:38.615Z,2.2
2022-09-09T04:02:46.945Z,2.2
2022-09-09T04:03:55.504Z,2.8
2022-09-09T04:05:03.845Z,2.8
2022-09-09T04:06:12.232Z,2.8
2022-09-09T04:07:20.739Z,2.4
2022-09-09T04:08:29.138Z,2.4
2022-09-09T04:09:37.441Z,2.4
2022-09-09T04:10:46.003Z,3.9
2022-09-09T04:11:54.341Z,3.9
2022-09-09T04:13:02.689Z,3.9
2022-09-09T04:14:11.239Z,2.9
2022-09-09T04:15:19.594Z,2.9
2022-09-09T04:16:27.980Z,2.9
2022-09-09T04:17:36.508Z,5
2022-09-09T04:18:44.853Z,5
2022-09-09T04:19:53.212Z,5
2022-09-09T04:21:01.749Z,2.4
2022-09-09T04:22:10.114Z,2.4
2022-09-09T04:23:18.438Z,2.4
2022-09-09T04:24:26.972Z,2.8
2022-09-09T04:25:35.328Z,2.8
2022-09-09T04:26:43.674Z,2.8
2022-09-09T04:27:52.216Z,3.6
2022-09-09T04:29:00.545Z,3.6
2022-09-09T04:30:08.903Z,3.6
2022-09-09T04:31:17.528Z,2.9
2022-09-09T04:32:25.810Z,2.9
2022-09-09T04:33:37.061Z,2.9
2022-09-09T04:34:42.718Z,2.2
2022-09-09T04:35:51.122Z,2.2
2022-09-09T04:36:59.470Z,2.2
2022-09-09T04:38:08.041Z,4.9
2022-09-09T04:39:16.365Z,4.9
2022-09-09T04:40:24.701Z,4.9
2022-09-09T04:41:33.257Z,3.7
2022-09-09T04:42:41.582Z,3.7
2022-09-09T04:43:49.941Z,3.7
2022-09-09T04:44:58.504Z,4.7
2022-09-09T04:46:06.872Z,4.7
2022-09-09T04:47:15.199Z,4.7
2022-09-09T04:48:23.750Z,2.6
2022-09-09T04:49:32.089Z,2.6
2022-09-09T04:50:40.423Z,2.6
2022-09-09T04:51:48.955Z,4.8
2022-09-09T04:52:57.267Z,4.8
2022-09-09T04:54:05.612Z,4.8
2022-09-09T04:55:14.133Z,6.1
2022-09-09T04:56:22.445Z,6.1
2022-09-09T04:57:30.764Z,6.1
2022-09-09T04:58:39.357Z,4.1
2022-09-09T04:59:47.703Z,4.1
2022-09-09T05:00:56.080Z,4.1
2022-09-09T05:02:04.630Z,4.6
2022-09-09T05:03:12.903Z,4.6
2022-09-09T05:04:21.226Z,4.6
2022-09-09T05:05:29.752Z,2.9
2022-09-09T05:06:38.133Z,2.9
2022-09-09T05:07:46.447Z,2.9
2022-09-09T05:08:54.974Z,3.2
2022-09-09T05:10:03.358Z,3.2
2022-09-09T05:11:11.659Z,3.2
2022-09-09T05:12:20.178Z,3.2
2022-09-09T05:13:28.497Z,3.2
2022-09-09T05:14:36.823Z,3.2
2022-09-09T05:15:45.354Z,4.9
2022-09-09T05:16:53.669Z,4.9
2022-09-09T05:18:01.987Z,4.9
2022-09-09T05:19:10.512Z,2.9
2022-09-09T05:20:18.857Z,2.9
2022-09-09T05:21:27.177Z,2.9
2022-09-09T05:22:35.705Z,4
2022-09-09T05:23:44.020Z,4
2022-09-09T05:24:52.345Z,4
2022-09-09T05:26:00.920Z,3.2
2022-09-09T05:27:09.230Z,3.2
2022-09-09T05:28:17.563Z,3.2
2022-09-09T05:29:26.114Z,4.1
2022-09-09T05:30:34.436Z,4.1
2022-09-09T05:31:42.822Z,4.1
2022-09-09T05:32:51.310Z,3.1
2022-09-09T05:33:59.650Z,3.1
2022-09-09T05:35:07.969Z,3.1
2022-09-09T05:36:16.511Z,2.7
2022-09-09T05:37:24.841Z,2.7
2022-09-09T05:38:33.167Z,2.7
2022-09-09T05:39:41.766Z,4
2022-09-09T05:40:50.038Z,4
2022-09-09T05:41:58.372Z,4
2022-09-09T05:43:06.881Z,5.1
2022-09-09T05:44:15.216Z,5.1
2022-09-09T05:45:23.534Z,5.1
2022-09-09T05:46:32.105Z,3.1
2022-09-09T05:47:40.409Z,3.1
2022-09-09T05:48:48.734Z,3.1
2022-09-09T05:49:57.286Z,3.2
2022-09-09T05:51:05.625Z,3.2
2022-09-09T05:52:13.922Z,3.2
2022-09-09T05:53:22.468Z,3.1
2022-09-09T05:54:30.801Z,3.1
2022-09-09T05:55:39.130Z,3.1
2022-09-09T05:56:51.104Z,2.3
2022-09-09T05:57:56.012Z,2.3
2022-09-09T05:59:04.316Z,2.3
2022-09-09T06:00:12.843Z,3.5
2022-09-09T06:01:21.177Z,3.5
2022-09-09T06:02:29.672Z,3.5
2022-09-09T06:03:38.027Z,5.6
2022-09-09T06:04:46.361Z,5.6
2022-09-09T06:05:54.701Z,5.6
2022-09-09T06:07:03.234Z,3.3
2022-09-09T06:08:11.573Z,3.3
2022-09-09T06:09:19.922Z,3.3
2022-09-09T06:10:28.453Z,3.4
2022-09-09T06:11:36.788Z,3.4
2022-09-09T06:12:45.142Z,3.4
2022-09-09T06:13:53.702Z,3.4
2022-09-09T06:15:02.019Z,3.4
2022-09-09T06:16:10.394Z,3.4
2022-09-09T06:17:18.873Z,3
2022-09-09T06:18:27.209Z,3
2022-09-09T06:19:35.570Z,3
2022-09-09T06:20:44.110Z,3.2
2022-09-09T06:21:52.421Z,3.2
2022-09-09T06:23:00.735Z,3.2
2022-09-09T06:24:09.296Z,2.3
2022-09-09T06:25:17.634Z,2.3
2022-09-09T06:26:25.974Z,2.3
2022-09-09T06:27:34.516Z,2.8
2022-09-09T06:28:42.848Z,2.8
2022-09-09T06:29:51.238Z,2.8
2022-09-09T06:30:59.802Z,3.3
2022-09-09T06:32:08.088Z,3.3
2022-09-09T06:33:16.419Z,3.3
2022-09-09T06:34:24.970Z,3.6
2022-09-09T06:35:33.301Z,3.6
2022-09-09T06:36:41.614Z,3.6
2022-09-09T06:37:50.154Z,5.9
2022-09-09T06:38:58.486Z,5.9
2022-09-09T06:40:06.880Z,5.9
2022-09-09T06:41:15.373Z,2.6
2022-09-09T06:42:23.694Z,2.6
2022-09-09T06:43:32.049Z,2.6
2022-09-09T06:44:40.591Z,3
2022-09-09T06:45:48.947Z,3
2022-09-09T06:46:57.313Z,3
2022-09-09T06:48:05.796Z,4
2022-09-09T06:49:14.144Z,4
2022-09-09T06:50:22.470Z,4
2022-09-09T06:51:31.002Z,3.5
2022-09-09T06:52:39.323Z,3.5
2022-09-09T06:53:47.638Z,3.5
2022-09-09T06:54:56.186Z,3
2022-09-09T06:56:04.519Z,3
2022-09-09T06:57:33.993Z,3
2022-09-09T06:58:21.369Z,3.1
2022-09-09T06:59:29.706Z,3.1
2022-09-09T07:00:38.116Z,3.1
2022-09-09T07:01:46.626Z,3.8
2022-09-09T07:02:54.878Z,3.8
2022-09-09T07:04:03.223Z,3.8
2022-09-09T07:05:11.746Z,3.3
2022-09-09T07:06:20.069Z,3.3
2022-09-09T07:07:28.393Z,3.3
2022-09-09T07:08:36.979Z,4.1
2022-09-09T07:09:45.271Z,4.1
2022-09-09T07:10:53.596Z,4.1
2022-09-09T07:12:02.138Z,5
2022-09-09T07:13:10.468Z,5
2022-09-09T07:14:18.811Z,5
2022-09-09T07:15:27.348Z,3.7
2022-09-09T07:16:35.707Z,3.7
2022-09-09T07:17:44.036Z,3.7
2022-09-09T07:18:52.561Z,3.3
2022-09-09T07:20:00.890Z,3.3
2022-09-09T07:21:09.227Z,3.3
2022-09-09T07:22:17.764Z,3.1
2022-09-09T07:23:26.107Z,3.1
2022-09-09T07:24:34.428Z,3.1
2022-09-09T07:25:42.957Z,2.8
2022-09-09T07:26:51.300Z,2.8
2022-09-09T07:27:59.633Z,2.8
2022-09-09T07:29:08.195Z,3.6
2022-09-09T07:30:21.976Z,3.6
2022-09-09T07:31:24.921Z,3.6
2022-09-09T07:32:33.382Z,2.6
2022-09-09T07:33:41.758Z,2.6
2022-09-09T07:34:50.098Z,2.6
2022-09-09T07:35:58.627Z,3.7
2022-09-09T07:37:06.961Z,3.7
2022-09-09T07:38:15.285Z,3.7
2022-09-09T07:39:23.825Z,4.3
2022-09-09T07:40:32.176Z,4.3
2022-09-09T07:41:40.502Z,4.3
2022-09-09T07:42:49.038Z,3
2022-09-09T07:43:57.360Z,3
2022-09-09T07:45:05.683Z,3
2022-09-09T07:46:14.262Z,2.7
2022-09-09T07:47:22.569Z,2.7
2022-09-09T07:48:30.915Z,2.7
2022-09-09T07:49:39.499Z,4.3
2022-09-09T07:50:47.816Z,4.3
2022-09-09T07:51:56.214Z,4.3
2022-09-09T07:53:04.706Z,5.2
2022-09-09T07:54:13.028Z,5.2
2022-09-09T07:55:21.354Z,5.2
2022-09-09T07:56:29.912Z,2.9
2022-09-09T07:57:38.244Z,2.9
2022-09-09T07:58:46.578Z,2.9
2022-09-09T07:59:55.137Z,4.6
2022-09-09T08:01:03.480Z,4.6
2022-09-09T08:02:11.802Z,4.6
2022-09-09T08:03:20.393Z,4.6
2022-09-09T08:04:28.683Z,4.6
2022-09-09T08:05:37.050Z,4.6
2022-09-09T08:06:45.568Z,4
2022-09-09T08:07:53.909Z,4
2022-09-09T08:09:02.242Z,4
2022-09-09T08:10:10.810Z,3.2
2022-09-09T08:11:19.136Z,3.2
2022-09-09T08:12:27.470Z,3.2
2022-09-09T08:13:36.142Z,3.4
2022-09-09T08:14:44.344Z,3.4
2022-09-09T08:15:52.713Z,3.4
2022-09-09T08:17:01.197Z,2.4
2022-09-09T08:18:09.546Z,2.4
2022-09-09T08:19:17.883Z,2.4
2022-09-09T08:20:26.426Z,3.3
2022-09-09T08:21:34.790Z,3.3
2022-09-09T08:22:43.107Z,3.3
2022-09-09T08:23:55.858Z,5.2
2022-09-09T08:24:59.999Z,5.2
2022-09-09T08:26:08.345Z,5.2
2022-09-09T08:27:16.910Z,13.3
2022-09-09T08:28:25.256Z,13.3
2022-09-09T08:29:33.627Z,13.3
2022-09-09T08:30:42.169Z,39
2022-09-09T08:31:50.512Z,39
2022-09-09T08:32:58.861Z,39
2022-09-09T08:34:07.406Z,8.9
2022-09-09T08:35:15.724Z,8.9
2022-09-09T08:36:24.052Z,8.9
2022-09-09T08:37:32.627Z,14.2
2022-09-09T08:38:40.938Z,14.2
2022-09-09T08:39:53.853Z,14.2
2022-09-09T08:40:57.789Z,3.7
2022-09-09T08:42:06.098Z,3.7
2022-09-09T08:43:14.420Z,3.7
2022-09-09T08:44:22.955Z,38.099998
2022-09-09T08:45:31.266Z,38.099998
2022-09-09T08:46:39.658Z,38.099998
2022-09-09T08:47:48.152Z,100.4
2022-09-09T08:48:56.429Z,100.4
2022-09-09T08:50:04.755Z,100.4
2022-09-09T08:51:13.309Z,46.799999
2022-09-09T08:52:21.637Z,46.799999
2022-09-09T08:53:30.011Z,46.799999
2022-09-09T08:54:51.447Z,28
2022-09-09T08:55:46.877Z,28
2022-09-09T08:56:55.218Z,28
2022-09-09T08:58:03.761Z,39.299999
2022-09-09T08:59:12.082Z,39.299999
2022-09-09T09:00:20.397Z,39.299999
2022-09-09T09:01:29.027Z,29.299999
2022-09-09T09:02:37.241Z,29.299999
2022-09-09T09:03:45.566Z,29.299999
2022-09-09T09:04:54.146Z,131.69999
2022-09-09T09:06:02.449Z,131.69999
2022-09-09T09:07:10.791Z,131.69999
2022-09-09T09:08:19.342Z,75.300003
2022-09-09T09:09:27.705Z,75.300003
2022-09-09T09:10:41.979Z,75.300003
2022-09-09T09:11:44.553Z,17.4
2022-09-09T09:12:52.919Z,17.4
2022-09-09T09:14:01.247Z,17.4
2022-09-09T09:15:09.803Z,12.1
2022-09-09T09:16:18.180Z,12.1
2022-09-09T09:17:26.494Z,12.1
2022-09-09T09:18:35.110Z,71.099998
2022-09-09T09:19:43.344Z,71.099998
2022-09-09T09:20:51.692Z,71.099998
2022-09-09T09:22:00.236Z,38.200001
2022-09-09T09:23:08.581Z,38.200001
2022-09-09T09:24:21.029Z,38.200001
2022-09-09T09:25:25.527Z,11.4
2022-09-09T09:26:33.849Z,11.4
2022-09-09T09:27:42.194Z,11.4
2022-09-09T09:28:50.730Z,8
2022-09-09T09:30:21.414Z,8
2022-09-09T09:31:07.449Z,8
2022-09-09T09:32:15.976Z,7
2022-09-09T09:33:24.311Z,7
2022-09-09T09:34:32.636Z,7
2022-09-09T09:35:43.065Z,7.7
2022-09-09T09:36:49.594Z,7.7
2022-09-09T09:40:14.874Z,5
2022-09-09T09:41:23.242Z,5
2022-09-09T09:42:31.763Z,13.7
2022-09-09T09:43:40.106Z,13.7
2022-09-09T09:44:48.472Z,13.7
2022-09-09T09:46:14.221Z,3.9
2022-09-09T09:47:05.368Z,3.9
2022-09-09T09:48:14.116Z,3.9
2022-09-09T09:49:22.258Z,26.200001
2022-09-09T09:50:30.605Z,26.200001
2022-09-09T09:51:38.968Z,26.200001
2022-09-09T09:52:47.556Z,15
2022-09-09T09:53:55.890Z,15
2022-09-09T09:55:07.647Z,15
2022-09-09T09:56:12.785Z,4.7
2022-09-09T09:57:21.180Z,4.7
2022-09-09T09:58:29.633Z,4.7
2022-09-09T09:59:40.192Z,4.8
2022-09-09T10:00:46.387Z,4.8
2022-09-09T10:01:54.818Z,4.8
2022-09-09T10:03:03.257Z,5.1
2022-09-09T10:04:11.629Z,5.1
2022-09-09T10:05:23.300Z,5.1
2022-09-09T10:06:28.488Z,2.9
2022-09-09T10:07:36.832Z,2.9
2022-09-09T10:08:45.200Z,2.9
2022-09-09T10:09:53.726Z,4.9
2022-09-09T10:11:02.070Z,4.9
2022-09-09T10:12:10.404Z,4.9
2022-09-09T10:13:18.976Z,2.5
2022-09-09T10:14:27.302Z,2.5
2022-09-09T10:15:35.696Z,2.5
2022-09-09T10:16:44.184Z,4.2
2022-09-09T10:17:52.526Z,4.2
2022-09-09T10:19:00.852Z,4.2
2022-09-09T10:20:09.387Z,4.9
2022-09-09T10:21:17.745Z,4.9
2022-09-09T10:22:26.076Z,4.9
2022-09-09T10:23:34.625Z,3.3
2022-09-09T10:24:42.948Z,3.3
2022-09-09T10:25:51.301Z,3.3
2022-09-09T10:26:59.855Z,3.2
2022-09-09T10:28:08.224Z,3.2
2022-09-09T10:29:16.586Z,3.2
2022-09-09T10:30:25.170Z,4.3
2022-09-09T10:31:33.527Z,4.3
2022-09-09T10:32:41.875Z,4.3
2022-09-09T10:33:50.431Z,4.5
2022-09-09T10:34:58.761Z,4.5
2022-09-09T10:36:07.081Z,4.5
2022-09-09T10:37:15.608Z,3.8
2022-09-09T10:38:23.961Z,3.8
2022-09-09T10:39:32.298Z,3.8
2022-09-09T10:40:40.807Z,3.7
2022-09-09T10:41:49.134Z,3.7
2022-09-09T10:42:57.486Z,3.7
2022-09-09T10:44:06.008Z,4.5
2022-09-09T10:45:14.403Z,4.5
2022-09-09T10:46:22.882Z,4.5
2022-09-09T10:47:31.207Z,4.2
2022-09-09T10:48:39.527Z,4.2
2022-09-09T10:49:47.842Z,4.2
2022-09-09T10:51:00.822Z,4.2
2022-09-09T10:52:04.689Z,4.2
2022-09-09T10:53:13.012Z,4.2
2022-09-09T10:54:21.556Z,2.5
2022-09-09T10:55:30.193Z,2.5
2022-09-09T10:56:38.215Z,2.5
2022-09-09T10:57:46.769Z,2.7
2022-09-09T10:58:55.095Z,2.7
2022-09-09T11:00:03.423Z,2.7
2022-09-09T11:01:12.048Z,3.8
2022-09-09T11:02:20.301Z,3.8
2022-09-09T11:03:28.699Z,3.8
2022-09-09T11:04:37.139Z,5.2
2022-09-09T11:05:45.474Z,5.2
2022-09-09T11:06:53.795Z,5.2
2022-09-09T11:08:02.352Z,4
2022-09-09T11:09:10.672Z,4
2022-09-09T11:10:19.015Z,4
2022-09-09T11:11:27.541Z,3.3
2022-09-09T11:12:35.903Z,3.3
2022-09-09T11:13:44.241Z,3.3
2022-09-09T11:14:52.772Z,2.4
2022-09-09T11:16:01.105Z,2.4
2022-09-09T11:17:09.448Z,2.4
2022-09-09T11:18:17.953Z,3.7
2022-09-09T11:19:26.281Z,3.7
2022-09-09T11:20:34.625Z,3.7
2022-09-09T11:21:43.148Z,5
2022-09-09T11:22:51.524Z,5
2022-09-09T11:23:59.816Z,5
2022-09-09T11:25:08.351Z,3.5
2022-09-09T11:26:16.694Z,3.5
2022-09-09T11:27:25.025Z,3.5
2022-09-09T11:28:33.614Z,4.1
2022-09-09T11:29:41.866Z,4.1
2022-09-09T11:30:56.367Z,4.1
2022-09-09T11:31:58.738Z,2.6
2022-09-09T11:33:07.097Z,2.6
2022-09-09T11:34:15.398Z,2.6
2022-09-09T11:35:23.913Z,3.5
2022-09-09T11:36:32.249Z,3.5
2022-09-09T11:37:40.595Z,3.5
2022-09-09T11:38:49.113Z,3.3
2022-09-09T11:39:57.462Z,3.3
2022-09-09T11:41:05.740Z,3.3
2022-09-09T11:42:14.281Z,4.2
2022-09-09T11:43:22.599Z,4.2
2022-09-09T11:44:31.011Z,4.2
2022-09-09T11:45:39.552Z,5.6
2022-09-09T11:46:47.814Z,5.6
2022-09-09T11:47:56.146Z,5.6
2022-09-09T11:49:04.739Z,3.8
2022-09-09T11:50:13.019Z,3.8
2022-09-09T11:51:21.346Z,3.8
2022-09-09T11:52:29.883Z,2.9
2022-09-09T11:53:38.212Z,2.9
2022-09-09T11:54:46.568Z,2.9
2022-09-09T11:55:55.089Z,3.6
2022-09-09T11:57:03.443Z,3.6
2022-09-09T11:58:11.765Z,3.6
2022-09-09T11:59:20.298Z,2.9
2022-09-09T12:00:28.667Z,2.9
2022-09-09T12:01:36.975Z,2.9
2022-09-09T12:02:45.546Z,3
2022-09-09T12:03:53.923Z,3
2022-09-09T12:05:02.282Z,3
2022-09-09T12:06:10.733Z,3.5
2022-09-09T12:07:19.069Z,3.5
2022-09-09T12:08:27.378Z,3.5
2022-09-09T12:09:35.898Z,2.7
2022-09-09T12:10:44.243Z,2.7
2022-09-09T12:11:52.578Z,2.7
2022-09-09T12:13:01.109Z,3.3
2022-09-09T12:14:09.447Z,3.3
2022-09-09T12:15:17.761Z,3.3
2022-09-09T12:16:26.345Z,4.4
2022-09-09T12:17:34.671Z,4.4
2022-09-09T12:18:43.099Z,4.4
2022-09-09T12:19:51.618Z,2.2
2022-09-09T12:20:59.956Z,2.2
2022-09-09T12:22:08.262Z,2.2
2022-09-09T12:23:16.797Z,2.1
2022-09-09T12:24:25.117Z,2.1
2022-09-09T12:25:33.452Z,2.1
2022-09-09T12:26:41.972Z,3
2022-09-09T12:27:50.308Z,3
2022-09-09T12:28:58.627Z,3
2022-09-09T12:30:07.176Z,3
2022-09-09T12:31:15.556Z,3
2022-09-09T12:32:23.837Z,3
2022-09-09T12:33:32.487Z,1.6
2022-09-09T12:34:40.697Z,1.6
2022-09-09T12:35:49.034Z,1.6
2022-09-09T12:36:57.589Z,4.4
2022-09-09T12:38:05.882Z,4.4
2022-09-09T12:39:14.199Z,4.4
2022-09-09T12:40:22.885Z,3.9
2022-09-09T12:41:31.215Z,3.9
2022-09-09T12:42:41.287Z,3.9
2022-09-09T12:43:48.483Z,3.7
2022-09-09T12:44:56.394Z,3.7
2022-09-09T12:46:04.757Z,3.7
2022-09-09T12:47:13.253Z,2.5
2022-09-09T12:48:21.649Z,2.5
2022-09-09T12:49:29.947Z,2.5
2022-09-09T12:50:38.492Z,2.1
2022-09-09T12:51:46.838Z,2.1
2022-09-09T12:52:55.177Z,2.1
2022-09-09T12:54:03.690Z,2.3
2022-09-09T12:55:12.026Z,2.3
2022-09-09T12:56:20.348Z,2.3
2022-09-09T12:57:28.887Z,3.7
2022-09-09T12:58:38.053Z,3.7
2022-09-09T12:59:46.351Z,3.7
2022-09-09T13:00:54.935Z,2.9
2022-09-09T13:02:03.376Z,2.9
2022-09-09T13:03:11.548Z,2.9
2022-09-09T13:04:20.140Z,2.5
2022-09-09T13:05:28.461Z,2.5
2022-09-09T13:06:36.786Z,2.5
2022-09-09T13:07:45.330Z,4.1
2022-09-09T13:08:53.689Z,4.1
2022-09-09T13:10:02.095Z,4.1
2022-09-09T13:11:10.552Z,3.1
2022-09-09T13:12:18.881Z,3.1
2022-09-09T13:13:27.230Z,3.1
2022-09-09T13:14:35.817Z,1.9
2022-09-09T13:15:44.188Z,1.9
2022-09-09T13:16:53.680Z,1.9
2022-09-09T13:18:03.116Z,2.9
2022-09-09T13:19:12.601Z,2.9
2022-09-09T13:20:20.944Z,2.9
2022-09-09T13:21:30.136Z,4.3
2022-09-09T13:22:38.455Z,4.3
2022-09-09T13:23:47.455Z,4.3
2022-09-09T13:24:56.646Z,1.5
2022-09-09T13:26:04.983Z,1.5
2022-09-09T13:27:15.047Z,1.5
2022-09-09T13:28:26.785Z,1.7
2022-09-09T13:29:35.107Z,1.7
2022-09-09T13:30:43.510Z,1.7
2022-09-09T13:31:53.289Z,2.8
2022-09-09T13:33:01.631Z,2.8
2022-09-09T13:34:09.964Z,2.8
2022-09-09T13:42:21.518Z,6.5
2022-09-09T13:43:30.656Z,6.5
2022-09-09T13:44:38.995Z,6.5
2022-09-09T13:45:47.569Z,2.8
2022-09-09T13:46:55.876Z,2.8
2022-09-09T13:48:04.969Z,2.8
2022-09-09T13:49:12.751Z,5.9
2022-09-09T13:50:21.156Z,5.9
2022-09-09T13:51:29.499Z,5.9
2022-09-09T13:52:38.046Z,2
2022-09-09T13:53:46.386Z,2
2022-09-09T13:54:54.767Z,2
2022-09-09T13:56:03.306Z,2.8
2022-09-09T13:57:11.632Z,2.8
2022-09-09T13:58:20.031Z,2.8
2022-09-09T13:59:47.963Z,2.2
2022-09-09T14:00:36.834Z,2.2
2022-09-09T14:01:45.154Z,2.2
2022-09-09T14:02:53.697Z,2.8
2022-09-09T14:04:02.024Z,2.8
2022-09-09T14:05:10.375Z,2.8
2022-09-09T14:06:18.979Z,9.2
2022-09-09T14:07:28.554Z,9.2
2022-09-09T14:08:35.865Z,9.2
2022-09-09T14:09:44.412Z,13
2022-09-09T14:10:52.731Z,13
2022-09-09T14:12:01.065Z,13
2022-09-09T14:13:09.598Z,10.6
2022-09-09T14:14:17.963Z,10.6
2022-09-09T14:15:26.279Z,10.6
2022-09-09T14:16:34.802Z,6.8
2022-09-09T14:17:43.135Z,6.8
2022-09-09T14:18:51.446Z,6.8
2022-09-09T14:20:00.019Z,3.8
2022-09-09T14:21:08.335Z,3.8
2022-09-09T14:22:16.657Z,3.8
2022-09-09T14:23:25.180Z,1.4
2022-09-09T14:24:33.508Z,1.4
2022-09-09T14:25:41.865Z,1.4
2022-09-09T14:26:50.386Z,2.1
2022-09-09T14:27:58.703Z,2.1
2022-09-09T14:29:07.051Z,2.1
2022-09-09T15:03:44.481Z,0
2022-09-09T15:04:52.753Z,0
2022-09-09T15:06:01.066Z,0
2022-09-09T15:07:09.611Z,0.8
2022-09-09T15:08:17.926Z,0.8
2022-09-09T15:09:26.273Z,0.8
2022-09-09T15:10:34.799Z,0.9
2022-09-09T15:11:43.132Z,0.9
2022-09-09T15:12:51.448Z,0.9
2022-09-09T15:13:59.988Z,1
2022-09-09T15:15:08.314Z,1
2022-09-09T15:16:16.668Z,1
2022-09-09T15:17:25.167Z,1.3
2022-09-09T15:18:33.489Z,1.3
2022-09-09T15:19:41.837Z,1.3
2022-09-09T15:20:50.371Z,2.3
2022-09-09T15:21:58.678Z,2.3
2022-09-09T15:23:06.995Z,2.3
2022-09-09T15:24:15.549Z,1.7
2022-09-09T15:25:23.867Z,1.7
2022-09-09T15:26:32.203Z,1.7
2022-09-09T15:27:40.729Z,1.5
2022-09-09T15:28:49.064Z,1.5
2022-09-09T15:29:57.398Z,1.5
2022-09-09T15:31:05.960Z,1.4
2022-09-09T15:32:14.281Z,1.4
2022-09-09T15:33:22.598Z,1.4
2022-09-09T15:34:31.127Z,2.1
2022-09-09T15:35:39.505Z,2.1
2022-09-09T15:36:47.802Z,2.1
2022-09-09T15:37:56.334Z,2
2022-09-09T15:39:04.670Z,2
2022-09-09T15:40:13.066Z,2
2022-09-09T15:41:21.594Z,1.7
2022-09-09T15:42:29.921Z,1.7
2022-09-09T15:43:38.346Z,1.7
2022-09-09T15:44:46.801Z,1.9
2022-09-09T15:45:55.230Z,1.9
2022-09-09T15:47:03.477Z,1.9
2022-09-09T15:48:12.013Z,1.6
2022-09-09T15:49:20.339Z,1.6
2022-09-09T15:50:28.669Z,1.6
2022-09-09T15:51:42.512Z,1.9
2022-09-09T15:52:45.523Z,1.9
2022-09-09T15:53:53.830Z,1.9
2022-09-09T15:55:02.393Z,2.5
2022-09-09T15:56:10.721Z,2.5
2022-09-09T15:57:19.016Z,2.5
2022-09-09T15:58:27.552Z,3
2022-09-09T15:59:35.893Z,3
2022-09-09T16:00:44.206Z,3
2022-09-09T16:01:52.791Z,1.8
2022-09-09T16:03:01.053Z,1.8
2022-09-09T16:04:09.371Z,1.8
2022-09-09T16:05:17.891Z,1.9
2022-09-09T16:06:26.212Z,1.9
2022-09-09T16:07:34.550Z,1.9
2022-09-09T16:08:43.063Z,2.7
2022-09-09T16:09:51.471Z,2.7
2022-09-09T16:10:59.716Z,2.7
2022-09-09T16:12:08.240Z,1.2
2022-09-09T16:13:16.561Z,1.2
2022-09-09T16:14:24.886Z,1.2
2022-09-09T16:15:33.417Z,3.5
2022-09-09T16:16:41.777Z,3.5
2022-09-09T16:17:50.099Z,3.5
2022-09-09T16:18:58.635Z,3.7
2022-09-09T16:20:07.259Z,3.7
2022-09-09T16:21:15.574Z,3.7
2022-09-09T16:22:24.208Z,3.4
2022-09-09T16:23:32.543Z,3.4
2022-09-09T16:24:41.197Z,3.4
2022-09-09T16:25:49.759Z,1.9